Time;durP1;ratioP1;P1;durP2;ratioP2;P2;SDS_P1;SDS_P2;PMS_P1;PMS_P2;Temp;Humidity;BMP_temperature;BMP_pressure;BME280_temperature;BME280_humidity;BME280_pressure;Samples;Min_cycle;Max_cycle;Signal;HPM_P1;HPM_P2
2023/10/09 00:01:52;;;;;;;10.37;6.93;;;;;;;14.17;76.56;98572.03;5046817;28;20949;-74
2023/10/09 00:04:20;;;;;;;9.53;7.10;;;;;;;14.09;76.58;98563.03;5038052;28;20536;-74
2023/10/09 00:06:48;;;;;;;10.27;7.40;;;;;;;14.17;76.38;98561.97;5045000;28;20473;-74
2023/10/09 00:09:30;;;;;;;9.43;7.93;;;;;;;13.94;77.05;98567.03;5043688;28;20454;-74
2023/10/09 00:11:57;;;;;;;13.33;7.00;;;;;;;13.91;77.50;98565.56;5043240;28;20511;-74
2023/10/09 00:14:25;;;;;;;9.47;7.30;;;;;;;14.10;76.75;98567.41;5042277;28;20565;-74
2023/10/09 00:17:00;;;;;;;9.63;7.30;;;;;;;14.01;76.96;98571.41;5041236;28;20475;-74
2023/10/09 00:19:31;;;;;;;11.33;7.23;;;;;;;13.88;77.30;98568.72;5047295;28;20506;-74
2023/10/09 00:21:58;;;;;;;10.80;7.27;;;;;;;13.85;77.38;98584.63;5040079;28;20544;-74
2023/10/09 00:24:28;;;;;;;9.53;7.37;;;;;;;13.77;77.69;98561.16;5045386;28;20450;-74
2023/10/09 00:27:02;;;;;;;10.90;6.90;;;;;;;13.82;77.71;98557.81;5045363;28;20475;-74
2023/10/09 00:29:34;;;;;;;9.50;6.60;;;;;;;13.93;77.20;98549.88;5045773;28;20517;-74
2023/10/09 00:32:13;;;;;;;11.57;7.20;;;;;;;13.82;77.67;98555.94;5041289;28;20468;-74
2023/10/09 00:34:40;;;;;;;11.30;7.23;;;;;;;13.83;77.51;98560.34;5041462;28;20625;-74
2023/10/09 00:37:10;;;;;;;10.10;7.50;;;;;;;13.61;78.11;98539.84;5040925;28;20456;-74
2023/10/09 00:39:44;;;;;;;12.43;7.97;;;;;;;13.70;78.20;98546.72;5044059;28;20893;-74
2023/10/09 00:42:21;;;;;;;11.27;7.63;;;;;;;13.67;77.83;98538.97;5045916;28;20436;-73
2023/10/09 00:44:49;;;;;;;13.07;7.60;;;;;;;13.85;77.95;98544.63;5047332;28;20452;-74
2023/10/09 00:47:26;;;;;;;11.20;7.67;;;;;;;13.71;78.11;98546.50;5042749;28;20635;-74
2023/10/09 00:49:59;;;;;;;9.70;7.60;;;;;;;13.64;78.43;98539.44;5040472;28;20457;-74
2023/10/09 00:52:39;;;;;;;12.63;7.30;;;;;;;13.64;78.38;98544.88;5042237;28;20531;-74
2023/10/09 00:55:13;;;;;;;10.60;6.90;;;;;;;13.70;78.04;98544.84;5039137;28;20535;-74
2023/10/09 00:57:41;;;;;;;12.77;7.33;;;;;;;13.61;78.32;98537.13;5045278;28;20482;-74
2023/10/09 01:00:32;;;;;;;9.50;7.70;;;;;;;13.64;78.08;98533.97;5040981;28;20476;-74
2023/10/09 01:03:11;;;;;;;12.27;7.37;;;;;;;13.81;77.46;98535.22;5043164;28;20452;-74
2023/10/09 01:05:39;;;;;;;11.60;7.90;;;;;;;13.82;77.43;98531.44;5042076;28;20481;-74
2023/10/09 01:08:16;;;;;;;13.00;7.33;;;;;;;13.76;77.63;98522.25;5039630;28;20458;-74
2023/10/09 01:10:51;;;;;;;12.67;7.27;;;;;;;13.66;77.51;98521.81;5045126;28;20439;-74
2023/10/09 01:13:18;;;;;;;11.60;7.30;;;;;;;13.70;77.57;98522.25;5044368;28;20539;-74
2023/10/09 01:15:46;;;;;;;11.77;7.20;;;;;;;13.71;77.44;98522.03;5036870;28;20490;-74
2023/10/09 01:18:14;;;;;;;11.33;7.63;;;;;;;13.79;77.26;98526.44;5039247;28;20995;-74
2023/10/09 01:20:45;;;;;;;11.97;7.47;;;;;;;13.73;77.48;98528.09;5045294;28;20812;-74
2023/10/09 01:23:13;;;;;;;10.90;7.10;;;;;;;13.60;77.72;98516.41;5044717;28;20960;-74
2023/10/09 01:25:45;;;;;;;10.10;7.03;;;;;;;13.72;77.58;98517.44;5036094;28;20552;-74
2023/10/09 01:28:15;;;;;;;12.27;6.90;;;;;;;13.55;78.14;98524.34;5043372;28;20542;-74
2023/10/09 01:30:43;;;;;;;11.33;7.60;;;;;;;13.43;78.63;98522.25;5044078;28;20463;-74
2023/10/09 01:33:21;;;;;;;12.83;7.30;;;;;;;13.54;78.36;98515.34;5039614;28;20449;-74
2023/10/09 01:35:50;;;;;;;11.60;7.57;;;;;;;13.55;78.44;98510.75;5029585;28;20562;-74
2023/10/09 01:38:18;;;;;;;14.30;7.63;;;;;;;13.76;77.61;98515.97;5044156;28;20454;-73
2023/10/09 01:40:51;;;;;;;8.57;6.63;;;;;;;13.60;78.17;98510.97;5045231;28;20483;-74
2023/10/09 01:43:19;;;;;;;12.20;8.30;;;;;;;13.71;77.52;98519.31;5050329;28;20471;-74
2023/10/09 01:45:46;;;;;;;10.10;7.80;;;;;;;13.70;77.73;98506.75;5048949;28;20468;-73
2023/10/09 01:48:23;;;;;;;10.43;7.17;;;;;;;13.69;77.94;98499.63;5046929;28;20447;-74
2023/10/09 01:50:50;;;;;;;12.67;7.33;;;;;;;13.52;78.21;98497.56;5047959;28;20456;-74
2023/10/09 01:53:22;;;;;;;13.53;7.43;;;;;;;13.50;78.25;98489.63;5045754;28;20558;-73
2023/10/09 01:55:49;;;;;;;12.87;7.00;;;;;;;13.57;78.22;98489.63;5046672;28;20859;-73
2023/10/09 01:58:24;;;;;;;12.33;7.07;;;;;;;13.56;78.28;98487.94;5048469;28;20862;-73
2023/10/09 02:00:54;;;;;;;11.80;7.00;;;;;;;13.64;77.79;98487.75;5049630;28;20491;-73
2023/10/09 02:03:25;;;;;;;13.60;7.50;;;;;;;13.54;77.96;98484.59;5047949;28;20243;-73
2023/10/09 02:05:53;;;;;;;8.47;7.33;;;;;;;13.61;77.72;98480.84;5042080;28;20485;-73
2023/10/09 02:08:26;;;;;;;13.57;6.70;;;;;;;13.40;78.83;98484.59;5047584;28;20511;-73
2023/10/09 02:10:56;;;;;;;10.10;7.13;;;;;;;13.62;77.85;98487.13;5045658;28;20560;-73
2023/10/09 02:13:29;;;;;;;9.90;7.10;;;;;;;13.37;78.63;98485.00;5049978;28;20459;-73
2023/10/09 02:15:59;;;;;;;13.25;6.90;;;;;;;13.49;78.42;98484.41;5050850;28;20643;-74
2023/10/09 02:18:39;;;;;;;13.07;7.63;;;;;;;13.40;78.49;98481.88;5048791;28;20189;-74
2023/10/09 02:21:13;;;;;;;14.00;7.57;;;;;;;13.42;78.43;98481.66;5040421;28;20551;-74
2023/10/09 02:23:46;;;;;;;12.83;7.13;;;;;;;13.45;78.79;98481.25;5037472;28;20543;-74
2023/10/09 02:26:19;;;;;;;12.00;7.00;;;;;;;13.34;79.00;98485.44;5043120;28;20480;-74
2023/10/09 02:28:52;;;;;;;11.33;6.47;;;;;;;13.35;78.25;98481.66;5045724;28;20471;-73
2023/10/09 02:31:22;;;;;;;15.40;7.50;;;;;;;13.47;78.06;98483.75;5045119;28;20444;-73
2023/10/09 02:33:49;;;;;;;9.27;7.23;;;;;;;13.45;77.98;98481.25;5040922;28;20454;-73
2023/10/09 02:36:15;;;;;;;14.83;7.80;;;;;;;13.51;77.77;98479.59;5046012;28;20615;-73
2023/10/09 02:38:44;;;;;;;12.57;7.37;;;;;;;13.51;77.85;98480.41;5043643;28;20502;-74
2023/10/09 02:41:22;;;;;;;11.50;7.37;;;;;;;13.52;77.99;98481.25;5048412;28;20443;-74
2023/10/09 02:43:50;;;;;;;12.40;7.13;;;;;;;13.44;78.23;98480.41;5046662;28;20440;-74
2023/10/09 02:46:19;;;;;;;11.95;7.10;;;;;;;13.34;78.54;98480.00;5047093;28;20471;-74
2023/10/09 02:48:50;;;;;;;12.70;7.20;;;;;;;13.34;78.73;98471.00;5044013;28;20194;-73
2023/10/09 02:51:32;;;;;;;11.27;7.53;;;;;;;13.35;78.81;98469.94;5045610;28;20451;-73
2023/10/09 02:54:07;;;;;;;11.90;6.97;;;;;;;13.25;79.05;98473.09;5047440;28;20262;-74
2023/10/09 02:56:42;;;;;;;10.07;6.57;;;;;;;13.37;79.13;98470.59;5046901;28;20495;-74
2023/10/09 02:59:09;;;;;;;9.35;6.90;;;;;;;13.32;78.90;98476.63;5044188;28;20948;-73
2023/10/09 03:01:40;;;;;;;12.70;8.37;;;;;;;13.33;79.02;98472.88;5047509;28;20303;-74
2023/10/09 03:04:07;;;;;;;11.87;6.60;;;;;;;13.32;79.09;98460.31;5046857;28;20538;-73
2023/10/09 03:06:38;;;;;;;14.60;7.60;;;;;;;13.36;79.04;98461.59;5048037;28;20474;-74
2023/10/09 03:09:16;;;;;;;13.77;6.77;;;;;;;13.37;78.86;98457.81;5038805;28;20959;-74
2023/10/09 03:11:44;;;;;;;11.97;7.80;;;;;;;13.26;79.55;98457.63;5046627;28;20467;-74
2023/10/09 03:14:11;;;;;;;11.43;8.03;;;;;;;13.21;79.67;98458.25;5046142;28;20482;-74
2023/10/09 03:16:38;;;;;;;11.37;6.90;;;;;;;13.32;78.63;98454.09;5046245;28;20838;-74
2023/10/09 03:19:05;;;;;;;11.03;7.50;;;;;;;13.37;78.58;98449.66;5044977;28;20813;-74
2023/10/09 03:21:32;;;;;;;16.20;7.20;;;;;;;13.34;78.04;98450.09;5046868;28;20994;-74
2023/10/09 03:24:00;;;;;;;9.33;6.43;;;;;;;13.35;78.00;98449.03;5046830;28;20444;-74
2023/10/09 03:26:31;;;;;;;10.27;7.13;;;;;;;13.42;77.13;98460.75;5047822;28;20507;-74
2023/10/09 03:29:00;;;;;;;15.10;6.80;;;;;;;13.37;76.84;98460.53;5045288;28;20490;-75
2023/10/09 03:31:27;;;;;;;14.27;7.20;;;;;;;13.39;77.13;98450.28;5045152;28;20451;-74
2023/10/09 03:33:54;;;;;;;12.67;6.67;;;;;;;13.44;76.62;98455.09;5045452;28;20461;-74
2023/10/09 03:36:21;;;;;;;12.13;6.80;;;;;;;13.59;75.26;98447.56;5040687;28;20484;-74
2023/10/09 03:38:48;;;;;;;13.97;7.00;;;;;;;13.55;75.44;98446.31;5039539;28;20460;-74
2023/10/09 03:41:17;;;;;;;11.80;6.50;;;;;;;13.62;75.01;98455.31;5046745;28;20452;-74
2023/10/09 03:43:46;;;;;;;10.73;6.50;;;;;;;13.65;74.91;98454.03;5047465;28;20464;-74
2023/10/09 03:46:20;;;;;;;14.23;6.53;;;;;;;13.66;74.80;98444.81;5049730;28;20490;-74
2023/10/09 03:48:47;;;;;;;13.07;6.90;;;;;;;13.62;74.67;98439.00;5046578;28;20505;-75
2023/10/09 03:51:21;;;;;;;11.40;6.53;;;;;;;13.73;74.53;98445.66;5037569;28;20455;-74
2023/10/09 03:53:48;;;;;;;13.13;6.90;;;;;;;13.65;74.70;98437.72;5037514;28;20461;-74
2023/10/09 03:56:15;;;;;;;10.67;6.83;;;;;;;13.71;74.12;98442.31;5038663;28;20503;-74
2023/10/09 03:58:44;;;;;;;10.60;6.73;;;;;;;13.66;74.63;98486.47;5041024;28;20870;-75
2023/10/09 04:01:22;;;;;;;10.43;6.33;;;;;;;13.62;74.38;98444.44;5039077;28;20458;-75
2023/10/09 04:03:48;;;;;;;13.00;6.93;;;;;;;13.69;74.17;98449.84;5044998;28;20459;-75
2023/10/09 04:06:17;;;;;;;10.87;6.53;;;;;;;13.74;73.69;98452.75;5042428;28;20514;-75
2023/10/09 04:08:48;;;;;;;9.70;6.37;;;;;;;13.76;73.08;98451.50;5036551;28;20538;-74
2023/10/09 04:11:22;;;;;;;10.77;5.63;;;;;;;13.88;72.56;98443.53;5043137;28;20920;-75
2023/10/09 04:13:51;;;;;;;13.17;6.57;;;;;;;13.79;72.75;98450.25;5041985;28;20788;-76
2023/10/09 04:16:34;;;;;;;18.77;6.43;;;;;;;13.78;72.42;98440.41;5045688;28;20571;-76
2023/10/09 04:19:10;;;;;;;13.70;6.60;;;;;;;13.77;72.61;98447.75;5042121;28;20465;-74
2023/10/09 04:21:37;;;;;;;11.00;6.40;;;;;;;13.69;72.89;98441.69;5041838;28;20587;-75
2023/10/09 04:24:22;;;;;;;13.50;6.47;;;;;;;13.60;73.22;98442.97;5042369;28;20474;-75
2023/10/09 04:26:55;;;;;;;12.00;6.43;;;;;;;13.52;73.63;98448.63;5044196;28;20456;-76
2023/10/09 04:29:38;;;;;;;9.53;6.10;;;;;;;13.61;73.71;98448.19;5042395;28;20977;-74
2023/10/09 04:32:15;;;;;;;14.27;6.77;;;;;;;13.68;73.66;98453.59;5046222;28;20460;-85
2023/10/09 04:34:48;;;;;;;10.60;6.80;;;;;;;13.88;72.71;98453.59;5019673;28;20475;-74
2023/10/09 04:37:24;;;;;;;12.83;7.10;;;;;;;13.85;72.55;98454.84;5014231;28;20504;-77
2023/10/09 04:40:10;;;;;;;10.33;6.60;;;;;;;13.66;73.30;98447.53;5014604;28;20460;-75
2023/10/09 04:42:37;;;;;;;14.23;6.87;;;;;;;13.79;72.83;98447.53;5031237;28;20467;-74
2023/10/09 04:47:57;;;;;;;11.77;6.33;;;;;;;13.84;72.75;98453.16;5035509;28;20503;-74
2023/10/09 04:50:45;;;;;;;10.67;6.17;;;;;;;13.76;72.84;98445.22;5033413;28;20507;-74
2023/10/09 04:53:23;;;;;;;12.20;6.97;;;;;;;13.75;73.13;98447.13;5035064;28;20544;-74
2023/10/09 04:55:57;;;;;;;11.63;6.47;;;;;;;13.72;73.25;98441.25;5036993;28;20497;-74
2023/10/09 04:58:25;;;;;;;14.47;6.87;;;;;;;13.51;73.77;98442.34;5042231;28;20456;-74
2023/10/09 05:01:12;;;;;;;9.37;6.03;;;;;;;13.64;73.41;98445.06;5043440;28;20460;-73
2023/10/09 05:03:45;;;;;;;10.93;6.60;;;;;;;13.63;73.37;98450.72;5024844;28;20459;-73
2023/10/09 05:06:21;;;;;;;11.63;6.87;;;;;;;13.72;72.99;98438.53;5037129;28;20471;-74
2023/10/09 05:08:48;;;;;;;12.83;6.80;;;;;;;13.64;73.35;98457.81;5039680;28;20479;-74
2023/10/09 05:14:11;;;;;;;17.90;6.80;;;;;;;13.77;72.89;98450.47;5032912;28;20807;-74
2023/10/09 05:16:37;;;;;;;9.50;6.40;;;;;;;13.58;73.14;98453.22;5048634;28;20546;-74
2023/10/09 05:19:06;;;;;;;10.03;6.50;;;;;;;13.57;73.20;98448.84;5042716;28;20455;-74
2023/10/09 05:21:44;;;;;;;16.57;6.50;;;;;;;13.49;73.16;98449.03;5043525;28;20496;-73
2023/10/09 05:24:19;;;;;;;11.37;5.93;;;;;;;13.59;72.99;98454.91;5040079;28;20450;-73
2023/10/09 05:26:53;;;;;;;16.23;6.90;;;;;;;13.51;72.59;98436.06;5042306;28;21244;-75
2023/10/09 05:29:34;;;;;;;11.93;6.07;;;;;;;13.61;72.58;98455.53;5040761;28;20513;-75
2023/10/09 05:32:05;;;;;;;16.10;6.53;;;;;;;13.61;72.21;98453.66;5047939;28;20455;-74
2023/10/09 05:34:33;;;;;;;13.57;6.73;;;;;;;13.58;72.47;98448.63;5047186;28;20572;-78
2023/10/09 05:37:17;;;;;;;15.20;6.70;;;;;;;13.67;72.30;98452.78;5036387;28;20493;-74
2023/10/09 05:39:58;;;;;;;19.50;6.93;;;;;;;13.72;72.11;98452.97;5048696;28;20464;-74
2023/10/09 05:42:29;;;;;;;12.97;6.63;;;;;;;13.77;72.09;98457.78;5041832;28;20871;-75
2023/10/09 05:45:38;;;;;;;14.60;6.50;;;;;;;13.71;72.12;98464.06;5041495;28;20476;-74
2023/10/09 05:47:47;;;;;;;16.03;8.10;;;;;;;13.60;72.66;98462.00;5043730;28;20549;-74
2023/10/09 05:53:09;;;;;;;17.77;7.30;;;;;;;13.74;71.43;98464.47;5047058;28;20459;-74
2023/10/09 06:02:17;;;;;;;14.30;7.30;;;;;;;13.58;71.95;98458.66;5036780;28;20489;-75
2023/10/09 06:03:55;;;;;;;12.57;6.00;;;;;;;13.56;72.25;98461.59;5044726;28;20444;-75
2023/10/09 06:06:42;;;;;;;15.07;6.90;;;;;;;13.67;71.82;98470.97;5049982;28;20548;-74
2023/10/09 06:12:32;;;;;;;12.90;6.93;;;;;;;13.69;70.50;98474.31;5046505;28;20461;-75
2023/10/09 06:14:57;;;;;;;15.00;6.50;;;;;;;13.81;70.54;98474.53;5043632;28;20474;-74
2023/10/09 06:17:27;;;;;;;12.03;5.97;;;;;;;13.85;69.40;98473.91;5042435;28;20572;-74
2023/10/09 06:19:59;;;;;;;11.00;6.07;;;;;;;14.08;69.17;98476.13;5039626;28;20473;-74
2023/10/09 06:25:17;;;;;;;16.90;6.30;;;;;;;14.17;68.58;98474.03;5036691;28;20472;-74
2023/10/09 06:28:01;;;;;;;13.70;6.00;;;;;;;14.20;68.00;98479.03;5034218;28;20457;-72
2023/10/09 06:30:28;;;;;;;12.03;6.13;;;;;;;14.23;68.28;98474.00;5041533;28;20460;-72
2023/10/09 06:33:20;;;;;;;9.23;5.10;;;;;;;14.42;67.26;98480.44;5046777;28;20564;-72
2023/10/09 06:35:53;;;;;;;14.90;6.60;;;;;;;14.17;67.89;98482.19;5044696;28;20540;-72
2023/10/09 06:38:33;;;;;;;16.33;6.30;;;;;;;14.22;67.86;98477.78;5046423;28;20607;-72
2023/10/09 06:43:47;;;;;;;13.30;5.97;;;;;;;14.42;67.11;98481.28;5042490;28;20492;-72
2023/10/09 06:49:33;;;;;;;13.90;5.63;;;;;;;14.53;66.37;98482.50;5111803;27;20559;-72
2023/10/09 06:52:15;;;;;;;15.70;5.83;;;;;;;14.63;66.11;98491.03;5101366;28;20454;-72
2023/10/09 06:54:49;;;;;;;25.03;6.97;;;;;;;14.68;65.55;98493.94;5102381;28;20478;-73
2023/10/09 06:57:43;;;;;;;11.83;5.63;;;;;;;14.60;65.63;98480.59;5100988;28;20463;-72
2023/10/09 07:02:53;;;;;;;13.23;6.10;;;;;;;14.86;64.59;98486.94;5102984;28;20459;-73
2023/10/09 07:05:31;;;;;;;14.43;5.20;;;;;;;14.77;64.36;98487.19;5102703;28;20458;-73
2023/10/09 07:08:28;;;;;;;12.67;5.63;;;;;;;15.21;64.18;98488.19;5091605;28;20479;-72
2023/10/09 07:10:45;;;;;;;13.10;5.30;;;;;;;15.21;63.59;98482.72;5099715;28;21198;-73
2023/10/09 07:13:11;;;;;;;17.83;6.60;;;;;;;15.15;63.61;98483.59;5091504;28;20575;-72
2023/10/09 07:18:40;;;;;;;12.17;5.83;;;;;;;15.19;64.41;98484.84;5098705;28;20206;-72
2023/10/09 07:21:11;;;;;;;13.80;5.80;;;;;;;15.16;64.76;98485.28;5099554;28;20555;-72
2023/10/09 07:23:48;;;;;;;13.40;6.40;;;;;;;15.15;65.42;98482.78;5093078;28;20456;-73
2023/10/09 07:26:23;;;;;;;13.00;6.00;;;;;;;14.94;67.67;98490.25;5097041;28;20458;-72
2023/10/09 07:28:50;;;;;;;13.93;6.33;;;;;;;14.86;67.48;98489.66;5100565;28;20512;-72
2023/10/09 07:31:26;;;;;;;13.20;6.50;;;;;;;15.05;66.05;98494.16;5102114;28;20456;-73
2023/10/09 07:34:07;;;;;;;13.77;6.63;;;;;;;14.85;66.55;98488.00;5101457;28;20946;-74
2023/10/09 07:36:47;;;;;;;13.30;6.90;;;;;;;14.94;66.18;98509.34;5104343;28;20437;-72
2023/10/09 07:39:16;;;;;;;12.47;6.90;;;;;;;15.00;66.70;98492.06;5101981;28;20455;-72
2023/10/09 07:41:55;;;;;;;15.13;6.00;;;;;;;15.32;65.40;98494.78;5102241;28;20443;-72
2023/10/09 07:44:37;;;;;;;17.33;6.70;;;;;;;15.48;64.75;98487.97;5095657;28;20538;-73
2023/10/09 07:47:16;;;;;;;14.70;6.90;;;;;;;15.45;64.92;98484.63;5101171;28;20862;-73
2023/10/09 07:49:48;;;;;;;17.43;6.60;;;;;;;15.36;64.92;98491.41;5093479;28;20459;-72
2023/10/09 07:52:17;;;;;;;11.00;6.20;;;;;;;15.17;65.47;98486.94;5102586;28;20955;-72
2023/10/09 07:54:52;;;;;;;12.93;6.53;;;;;;;15.20;66.06;98478.31;5098838;28;20571;-72
2023/10/09 07:57:25;;;;;;;10.63;5.83;;;;;;;15.35;65.87;98495.19;5101213;28;20505;-73
2023/10/09 08:00:00;;;;;;;11.67;6.20;;;;;;;15.48;66.10;98493.44;5084900;28;20460;-72
2023/10/09 08:02:32;;;;;;;13.43;6.70;;;;;;;15.76;65.39;98500.13;5088322;28;20487;-72
2023/10/09 08:05:06;;;;;;;14.47;6.93;;;;;;;15.66;65.71;98501.69;5087657;28;20568;-72
2023/10/09 08:07:44;;;;;;;12.70;6.03;;;;;;;15.61;64.88;98505.06;5082237;28;20472;-73
2023/10/09 08:13:49;;;;;;;14.80;6.20;;;;;;;15.36;65.18;98480.50;5083258;28;20635;-72
2023/10/09 08:15:53;;;;;;;13.57;6.83;;;;;;;15.63;66.17;98518.50;5078010;28;20473;-72
2023/10/09 08:18:27;;;;;;;13.90;7.07;;;;;;;15.87;65.82;98514.94;5081605;28;20457;-72
2023/10/09 08:23:49;;;;;;;14.00;6.57;;;;;;;16.24;64.36;98515.00;5087668;28;20897;-72
2023/10/09 08:26:28;;;;;;;12.73;6.17;;;;;;;16.48;63.56;98515.97;5088235;28;20445;-72
2023/10/09 08:29:15;;;;;;;16.27;6.80;;;;;;;16.34;63.60;98507.09;5085506;28;21438;-72
2023/10/09 08:31:46;;;;;;;12.83;6.20;;;;;;;16.63;63.03;98509.03;5085830;28;20452;-73
2023/10/09 08:34:24;;;;;;;12.20;6.53;;;;;;;16.92;62.03;98512.06;5087656;28;20565;-73
2023/10/09 08:36:53;;;;;;;11.80;6.13;;;;;;;16.91;62.11;98510.41;5081498;28;20453;-73
2023/10/09 08:39:33;;;;;;;17.87;6.03;;;;;;;17.07;61.16;98517.97;5081823;28;20465;-73
2023/10/09 08:42:01;;;;;;;12.90;6.63;;;;;;;17.02;61.12;98512.34;5078769;28;21091;-73
2023/10/09 08:44:31;;;;;;;11.13;5.77;;;;;;;17.20;60.15;98514.22;5085119;28;20472;-73
2023/10/09 08:46:58;;;;;;;12.50;6.33;;;;;;;17.36;59.53;98519.00;5081414;28;20593;-73
2023/10/09 08:49:27;;;;;;;11.70;6.23;;;;;;;17.37;59.01;98513.31;5079821;28;20707;-72
2023/10/09 08:51:53;;;;;;;19.53;5.97;;;;;;;17.46;58.95;98509.16;5086644;28;20480;-73
2023/10/09 08:54:21;;;;;;;11.73;6.03;;;;;;;17.51;58.98;98513.09;5085328;28;20476;-73
2023/10/09 08:56:51;;;;;;;12.93;6.50;;;;;;;17.33;59.19;98520.31;5086873;28;20541;-72
2023/10/09 08:59:19;;;;;;;16.30;7.57;;;;;;;17.24;60.32;98510.75;5085748;28;20564;-72
2023/10/09 09:01:49;;;;;;;14.97;6.10;;;;;;;17.40;59.42;98522.94;5084190;28;20445;-72
2023/10/09 09:04:35;;;;;;;12.87;6.23;;;;;;;17.47;59.97;98526.44;5082510;28;20702;-72
2023/10/09 09:07:02;;;;;;;16.17;6.30;;;;;;;17.46;60.03;98525.59;5081291;28;20449;-72
2023/10/09 09:09:32;;;;;;;13.27;6.00;;;;;;;17.46;60.06;98530.22;5086866;28;20506;-73
2023/10/09 09:11:59;;;;;;;10.87;6.27;;;;;;;17.81;59.33;98543.19;5087351;28;20446;-72
2023/10/09 09:14:36;;;;;;;13.97;6.53;;;;;;;18.31;59.43;98551.75;5086598;28;20504;-73
2023/10/09 09:17:05;;;;;;;11.77;6.57;;;;;;;18.69;58.05;98554.00;5077936;28;20881;-72
2023/10/09 09:19:33;;;;;;;11.23;6.83;;;;;;;19.00;57.38;98558.22;5079512;28;20454;-73
2023/10/09 09:22:11;;;;;;;14.67;6.77;;;;;;;19.00;55.48;98552.72;5080079;28;20448;-73
2023/10/09 09:24:45;;;;;;;16.50;5.83;;;;;;;19.46;54.22;98546.22;5082654;28;21007;-73
2023/10/09 09:27:18;;;;;;;11.37;6.13;;;;;;;19.65;54.43;98542.19;5078021;28;20453;-73
2023/10/09 09:29:52;;;;;;;16.83;6.57;;;;;;;19.61;53.97;98540.19;5083317;28;21075;-73
2023/10/09 09:32:29;;;;;;;12.50;6.27;;;;;;;19.63;54.15;98541.59;5084458;28;20477;-73
2023/10/09 09:34:59;;;;;;;18.30;7.47;;;;;;;19.55;55.15;98532.94;5076425;28;20473;-73
2023/10/09 09:37:29;;;;;;;15.47;6.40;;;;;;;19.36;56.14;98533.13;5082380;28;20487;-74
2023/10/09 09:40:00;;;;;;;11.33;6.40;;;;;;;19.50;55.83;98541.88;5082553;28;20461;-72
2023/10/09 09:42:31;;;;;;;11.67;5.80;;;;;;;19.41;55.85;98537.88;5079743;28;20455;-73
2023/10/09 09:45:00;;;;;;;14.50;6.53;;;;;;;19.69;54.92;98546.09;5081032;28;20502;-72
2023/10/09 09:47:27;;;;;;;13.10;5.80;;;;;;;19.99;52.88;98537.53;5083655;28;20494;-73
2023/10/09 09:49:59;;;;;;;16.03;5.90;;;;;;;20.24;51.27;98536.25;5091861;28;20476;-72
2023/10/09 09:52:29;;;;;;;13.57;5.83;;;;;;;20.45;50.01;98538.25;5087678;28;20454;-74
2023/10/09 09:55:05;;;;;;;12.30;4.87;;;;;;;20.68;49.53;98538.03;5079709;28;20478;-73
2023/10/09 09:57:39;;;;;;;10.03;5.80;;;;;;;20.63;49.38;98540.69;5079532;28;20821;-73
2023/10/09 10:00:26;;;;;;;17.70;6.07;;;;;;;21.13;48.74;98545.16;5085711;28;21160;-73
2023/10/09 10:02:57;;;;;;;16.53;5.57;;;;;;;21.28;48.72;98547.28;5084382;28;20459;-74
2023/10/09 10:05:27;;;;;;;12.23;4.87;;;;;;;21.44;47.13;98544.44;5079924;28;20473;-73
2023/10/09 10:07:55;;;;;;;12.00;4.80;;;;;;;21.75;46.21;98548.34;5077597;28;20552;-73
2023/10/09 10:10:47;;;;;;;13.43;5.20;;;;;;;22.02;46.41;98544.72;5085806;28;20540;-73
2023/10/09 10:13:21;;;;;;;14.83;5.53;;;;;;;22.02;46.29;98541.97;5083180;28;20935;-73
2023/10/09 10:16:19;;;;;;;15.77;4.97;;;;;;;22.10;47.04;98539.53;5080286;28;20481;-73
2023/10/09 10:19:06;;;;;;;13.03;6.23;;;;;;;22.33;46.20;98535.56;5075850;28;21234;-74
2023/10/09 10:21:38;;;;;;;13.23;5.27;;;;;;;22.54;46.42;98541.19;5084488;28;20485;-73
2023/10/09 10:24:06;;;;;;;16.57;5.57;;;;;;;22.99;45.83;98535.13;5084140;28;20481;-73
2023/10/09 10:26:35;;;;;;;12.27;5.07;;;;;;;23.19;45.39;98532.41;5086856;28;20919;-74
2023/10/09 10:29:26;;;;;;;12.47;5.40;;;;;;;23.30;45.05;98528.59;5083393;28;20504;-74
2023/10/09 10:31:57;;;;;;;10.43;4.97;;;;;;;22.90;44.96;98525.69;5080834;28;20892;-73
2023/10/09 10:34:25;;;;;;;11.30;4.77;;;;;;;22.94;43.75;98527.63;5086463;28;20476;-73
2023/10/09 10:36:59;;;;;;;14.13;4.87;;;;;;;22.93;43.95;98512.16;5082304;28;20456;-73
2023/10/09 10:39:43;;;;;;;10.20;5.03;;;;;;;22.88;44.21;98516.84;5076088;28;20463;-75
2023/10/09 10:42:33;;;;;;;12.20;4.67;;;;;;;23.11;43.65;98522.72;5079458;28;20526;-74
2023/10/09 10:45:02;;;;;;;13.00;4.90;;;;;;;23.13;43.43;98519.69;5080389;28;20972;-75
2023/10/09 10:47:33;;;;;;;11.53;4.87;;;;;;;22.94;42.63;98527.63;5064152;28;22288;-74
2023/10/09 10:50:20;;;;;;;15.70;4.87;;;;;;;22.93;42.51;98519.63;5073088;28;20491;-74
2023/10/09 10:52:57;;;;;;;12.07;5.40;;;;;;;22.81;42.74;98524.53;5082883;28;20526;-75
2023/10/09 10:58:24;;;;;;;12.97;4.77;;;;;;;22.70;43.47;98524.47;5082392;28;20488;-75
2023/10/09 11:01:11;;;;;;;10.00;4.77;;;;;;;22.85;42.65;98503.56;5077981;28;21018;-75
2023/10/09 11:03:54;;;;;;;12.57;4.87;;;;;;;22.95;42.36;98522.94;5081219;28;20473;-75
2023/10/09 11:06:37;;;;;;;12.27;4.50;;;;;;;23.10;42.21;98520.22;5085044;28;20498;-75
2023/10/09 11:09:10;;;;;;;12.63;4.90;;;;;;;23.23;42.20;98529.94;5083388;28;20481;-75
2023/10/09 11:11:42;;;;;;;14.27;4.93;;;;;;;23.60;41.41;98527.00;5080833;28;20471;-75
2023/10/09 11:14:14;;;;;;;11.70;5.37;;;;;;;24.17;40.27;98534.19;5083440;28;20477;-75
2023/10/09 11:16:43;;;;;;;14.20;4.70;;;;;;;24.48;39.33;98530.31;5080446;28;20499;-76
2023/10/09 11:19:22;;;;;;;9.47;4.10;;;;;;;24.66;38.43;98535.25;5083920;28;21140;-76
2023/10/09 11:21:58;;;;;;;9.47;4.43;;;;;;;24.69;38.42;98537.44;5090498;28;20543;-75
2023/10/09 11:24:26;;;;;;;9.47;4.53;;;;;;;24.73;37.87;98530.22;5083191;28;20885;-75
2023/10/09 11:26:56;;;;;;;9.63;4.30;;;;;;;24.73;38.62;98532.16;5082009;28;20540;-76
2023/10/09 11:29:28;;;;;;;10.67;4.33;;;;;;;24.50;38.71;98530.84;5079449;28;21420;-74
2023/10/09 11:32:00;;;;;;;12.90;4.43;;;;;;;24.11;38.38;98523.13;5078063;28;20479;-75
2023/10/09 11:34:31;;;;;;;9.00;4.17;;;;;;;23.82;38.32;98524.81;5083857;28;20461;-75
2023/10/09 11:37:00;;;;;;;7.93;4.10;;;;;;;23.59;39.46;98514.28;5075459;28;20551;-75
2023/10/09 11:39:42;;;;;;;9.47;4.70;;;;;;;23.32;39.81;98507.03;5081081;28;20461;-75
2023/10/09 11:42:10;;;;;;;9.40;4.30;;;;;;;23.14;40.82;98493.72;5085488;28;21187;-75
2023/10/09 11:44:39;;;;;;;9.77;3.90;;;;;;;23.00;41.15;98503.63;5086897;28;20474;-75
2023/10/09 11:47:24;;;;;;;14.87;4.90;;;;;;;22.84;40.51;98507.44;5084002;28;20449;-75
2023/10/09 11:50:12;;;;;;;9.13;4.70;;;;;;;22.89;40.61;98504.69;5073159;28;20485;-75
2023/10/09 11:53:08;;;;;;;8.80;3.40;;;;;;;23.17;39.95;98503.41;5080944;28;21058;-75
2023/10/09 11:55:37;;;;;;;11.00;4.50;;;;;;;23.23;39.31;98497.63;5082015;28;20457;-79
2023/10/09 11:58:06;;;;;;;7.13;3.73;;;;;;;23.11;39.67;98491.50;5069737;28;20538;-76
2023/10/09 12:00:45;;;;;;;7.83;4.03;;;;;;;23.44;38.78;98488.25;5082880;28;21165;-77
2023/10/09 12:03:13;;;;;;;9.20;4.50;;;;;;;23.17;38.05;98482.13;5083706;28;20492;-76
2023/10/09 12:05:43;;;;;;;9.47;4.10;;;;;;;23.23;38.47;98481.03;5084169;28;20461;-75
2023/10/09 12:08:11;;;;;;;9.10;4.43;;;;;;;23.40;38.85;98491.84;5077794;28;20450;-76
2023/10/09 12:10:40;;;;;;;8.60;4.90;;;;;;;23.38;38.22;98483.03;5065021;28;20487;-76
2023/10/09 12:13:07;;;;;;;7.73;3.83;;;;;;;23.37;38.22;98493.25;5083857;28;20449;-76
2023/10/09 12:15:38;;;;;;;7.90;3.93;;;;;;;23.42;37.98;98487.69;5064309;28;20446;-75
2023/10/09 12:18:08;;;;;;;6.90;4.20;;;;;;;23.43;37.63;98474.72;5084567;28;20501;-76
2023/10/09 12:20:36;;;;;;;7.00;4.13;;;;;;;23.71;37.29;98473.41;5080594;28;20442;-75
2023/10/09 12:23:05;;;;;;;15.03;4.87;;;;;;;23.99;37.00;98472.81;5082055;28;20663;-75
2023/10/09 12:25:33;;;;;;;9.50;4.23;;;;;;;24.20;36.72;98464.47;5080250;28;20548;-76
2023/10/09 12:28:01;;;;;;;9.33;4.47;;;;;;;24.65;36.21;98450.53;5086241;28;20523;-76
2023/10/09 12:30:28;;;;;;;12.10;4.50;;;;;;;24.97;34.95;98432.69;5073603;28;20563;-76
2023/10/09 12:32:58;;;;;;;8.60;4.13;;;;;;;24.94;34.36;98424.91;5074550;28;20461;-76
2023/10/09 12:35:25;;;;;;;8.90;4.87;;;;;;;24.76;34.73;98418.91;5060039;28;20480;-76